createdAt,value
2018-06-17T00:00:33.772Z,23.37
2018-06-17T00:03:01.857Z,20.20
2018-06-17T00:05:30.328Z,15.50
2018-06-17T00:07:58.288Z,16.87
2018-06-17T00:10:26.261Z,18.07
2018-06-17T00:12:54.252Z,11.13
2018-06-17T00:15:22.148Z,12.80
2018-06-17T00:17:49.964Z,11.47
2018-06-17T00:20:18.012Z,13.73
2018-06-17T00:22:45.789Z,16.47
2018-06-17T00:25:13.672Z,15.73
2018-06-17T00:27:41.668Z,15.83
2018-06-17T00:30:09.710Z,15.30
2018-06-17T00:32:39.324Z,15.47
2018-06-17T00:35:07.222Z,13.77
2018-06-17T00:37:35.060Z,12.37
2018-06-17T00:40:03.000Z,11.87
2018-06-17T00:42:30.924Z,13.33
2018-06-17T00:44:58.856Z,11.37
2018-06-17T00:47:26.861Z,11.17
2018-06-17T00:49:54.694Z,13.60
2018-06-17T00:52:22.567Z,12.10
2018-06-17T00:54:50.568Z,10.37
2018-06-17T00:57:23.630Z,14.63
2018-06-17T00:59:51.652Z,11.17
2018-06-17T01:02:19.588Z,13.50
2018-06-17T01:04:47.760Z,13.50
2018-06-17T01:07:15.612Z,12.27
2018-06-17T01:09:43.714Z,11.13
2018-06-17T01:12:11.661Z,13.60
2018-06-17T01:14:39.664Z,14.90
2018-06-17T01:17:07.526Z,12.17
2018-06-17T01:19:35.664Z,12.97
2018-06-17T01:22:03.639Z,12.13
2018-06-17T01:24:31.650Z,11.80
2018-06-17T01:26:59.584Z,12.33
2018-06-17T01:29:27.605Z,12.13
2018-06-17T01:31:55.416Z,12.20
2018-06-17T01:34:23.308Z,15.03
2018-06-17T01:36:51.277Z,15.17
2018-06-17T01:39:19.532Z,15.00
2018-06-17T01:41:47.315Z,13.10
2018-06-17T01:44:15.297Z,13.80
2018-06-17T01:46:43.244Z,12.33
2018-06-17T01:49:11.221Z,13.50
2018-06-17T01:51:39.237Z,15.37
2018-06-17T01:54:07.260Z,13.77
2018-06-17T01:56:35.289Z,13.87
2018-06-17T01:59:03.200Z,13.03
2018-06-17T02:01:32.101Z,12.20
2018-06-17T02:05:05.896Z,13.17
2018-06-17T02:07:39.048Z,18.73
2018-06-17T02:10:12.136Z,15.13
2018-06-17T02:12:40.035Z,16.30
2018-06-17T02:15:07.934Z,16.53
2018-06-17T02:17:36.553Z,14.43
2018-06-17T02:20:04.516Z,14.13
2018-06-17T02:22:32.485Z,15.80
2018-06-17T02:25:00.445Z,15.70
2018-06-17T02:27:29.341Z,17.97
2018-06-17T02:29:57.468Z,15.63
2018-06-17T02:32:25.516Z,15.70
2018-06-17T02:34:53.474Z,16.57
2018-06-17T02:37:21.415Z,14.80
2018-06-17T02:39:49.312Z,15.97
2018-06-17T02:42:17.275Z,16.40
2018-06-17T02:44:46.067Z,19.33
2018-06-17T02:47:19.254Z,19.73
2018-06-17T02:49:48.193Z,16.33
2018-06-17T02:52:21.386Z,17.77
2018-06-17T02:54:49.496Z,18.90
2018-06-17T02:57:18.647Z,15.63
2018-06-17T02:59:47.097Z,18.73
2018-06-17T03:02:15.265Z,21.23
2018-06-17T03:04:43.268Z,19.00
2018-06-17T03:07:12.257Z,21.87
2018-06-17T03:09:40.350Z,19.90
2018-06-17T03:12:08.365Z,20.20
2018-06-17T03:14:36.317Z,26.43
2018-06-17T03:17:04.293Z,20.00
2018-06-17T03:19:32.294Z,21.47
2018-06-17T03:22:00.264Z,16.03
2018-06-17T03:24:33.720Z,22.60
2018-06-17T03:27:07.680Z,23.20
2018-06-17T03:29:41.595Z,19.07
2018-06-17T03:32:14.596Z,19.30
2018-06-17T03:34:43.451Z,18.43
2018-06-17T03:37:11.321Z,21.47
2018-06-17T03:39:40.457Z,22.33
2018-06-17T03:42:09.272Z,17.37
2018-06-17T03:44:37.411Z,20.30
2018-06-17T03:47:05.387Z,19.97
2018-06-17T03:49:34.044Z,24.20
2018-06-17T03:52:03.368Z,18.23
2018-06-17T03:54:31.254Z,17.90
2018-06-17T03:56:59.958Z,17.17
2018-06-17T03:59:28.101Z,20.87
2018-06-17T04:01:56.071Z,17.97
2018-06-17T04:04:26.821Z,20.77
2018-06-17T04:06:54.964Z,20.03
2018-06-17T04:09:23.304Z,16.40
2018-06-17T04:11:52.426Z,16.37
2018-06-17T04:14:20.464Z,15.03
2018-06-17T04:16:48.508Z,21.53
2018-06-17T04:19:16.444Z,18.80
2018-06-17T04:21:44.384Z,15.70
2018-06-17T04:24:12.469Z,14.30
2018-06-17T04:26:40.560Z,19.30
2018-06-17T04:29:08.509Z,16.87
2018-06-17T04:31:36.484Z,13.93
2018-06-17T04:34:04.507Z,14.47
2018-06-17T04:36:33.486Z,14.90
2018-06-17T04:39:01.541Z,13.90
2018-06-17T04:41:29.500Z,16.23
2018-06-17T04:43:57.644Z,14.27
2018-06-17T04:46:26.084Z,14.17
2018-06-17T04:48:54.174Z,15.37
2018-06-17T04:51:22.892Z,13.97
2018-06-17T04:53:50.973Z,18.73
2018-06-17T04:56:19.020Z,16.70
2018-06-17T04:58:47.111Z,13.50
2018-06-17T05:01:15.173Z,13.65
2018-06-17T05:03:43.202Z,14.85
2018-06-17T05:06:11.115Z,16.45
2018-06-17T05:08:39.135Z,14.93
2018-06-17T05:11:07.105Z,14.05
2018-06-17T05:13:35.164Z,14.35
2018-06-17T05:16:03.254Z,14.63
2018-06-17T05:18:31.140Z,17.95
2018-06-17T05:20:59.692Z,14.20
2018-06-17T05:23:27.869Z,15.98
2018-06-17T05:25:56.005Z,14.68
2018-06-17T05:28:24.120Z,13.93
2018-06-17T05:30:52.863Z,14.28
2018-06-17T05:33:20.988Z,19.37
2018-06-17T05:35:49.000Z,18.23
2018-06-17T05:38:16.953Z,18.67
2018-06-17T05:40:45.836Z,20.88
2018-06-17T05:43:13.784Z,15.75
2018-06-17T05:45:41.788Z,14.87
2018-06-17T05:48:10.493Z,15.43
2018-06-17T05:50:38.768Z,20.10
2018-06-17T05:53:06.702Z,15.93
2018-06-17T05:55:34.599Z,18.50
2018-06-17T05:58:03.705Z,16.60
2018-06-17T06:00:31.504Z,15.72
2018-06-17T06:02:59.568Z,16.60
2018-06-17T06:05:27.829Z,16.82
2018-06-17T06:07:55.953Z,15.48
2018-06-17T06:10:24.163Z,15.50
2018-06-17T06:12:52.028Z,15.23
2018-06-17T06:15:20.213Z,15.15
2018-06-17T06:17:48.199Z,14.75
2018-06-17T06:20:16.510Z,14.85
2018-06-17T06:22:44.509Z,17.75
2018-06-17T06:25:12.359Z,18.62
2018-06-17T06:27:40.628Z,17.55
2018-06-17T06:30:08.624Z,16.65
2018-06-17T06:32:37.224Z,13.95
2018-06-17T06:35:05.268Z,17.92
2018-06-17T06:37:33.808Z,16.55
2018-06-17T06:40:01.824Z,15.48
2018-06-17T06:42:29.937Z,14.78
2018-06-17T06:44:58.024Z,15.05
2018-06-17T06:47:26.073Z,13.75
2018-06-17T06:49:54.038Z,15.83
2018-06-17T06:52:22.769Z,14.38
2018-06-17T06:54:50.812Z,17.32
2018-06-17T06:57:18.888Z,13.55
2018-06-17T06:59:46.837Z,13.35
2018-06-17T07:02:20.288Z,12.40
2018-06-17T07:04:53.612Z,16.20
2018-06-17T07:07:27.659Z,12.95
2018-06-17T07:10:00.832Z,12.47
2018-06-17T07:12:28.898Z,11.38
2018-06-17T07:14:57.197Z,10.03
2018-06-17T07:17:30.491Z,11.25
2018-06-17T07:19:58.772Z,10.80
2018-06-17T07:22:26.708Z,12.82
2018-06-17T07:24:55.102Z,10.58
2018-06-17T07:27:28.624Z,10.88
2018-06-17T07:29:56.608Z,10.78
2018-06-17T07:32:24.740Z,10.93
2018-06-17T07:34:52.693Z,10.45
2018-06-17T07:37:20.934Z,11.38
2018-06-17T07:39:56.782Z,11.93
2018-06-17T07:42:24.705Z,9.25
2018-06-17T07:44:52.588Z,9.85
2018-06-17T07:47:20.820Z,9.63
2018-06-17T07:49:54.140Z,9.15
2018-06-17T07:52:29.387Z,8.45
2018-06-17T07:54:57.776Z,7.90
2018-06-17T07:57:27.864Z,7.95
2018-06-17T07:59:55.944Z,10.28
2018-06-17T08:02:24.090Z,10.08
2018-06-17T08:17:57.211Z,7.90
2018-06-17T08:20:25.985Z,8.38
2018-06-17T08:22:53.968Z,6.30
2018-06-17T08:25:22.034Z,6.65
2018-06-17T08:27:49.996Z,6.67
2018-06-17T08:30:18.709Z,6.28
2018-06-17T08:32:46.705Z,8.28
2018-06-17T08:35:14.891Z,5.78
2018-06-17T08:37:42.952Z,6.78
2018-06-17T08:40:11.101Z,10.68
2018-06-17T08:42:39.084Z,7.70
2018-06-17T08:45:07.372Z,5.40
2018-06-17T08:47:35.137Z,7.60
2018-06-17T08:50:03.080Z,6.08
2018-06-17T08:52:33.527Z,6.70
2018-06-17T08:55:01.508Z,7.15
2018-06-17T08:57:29.676Z,5.83
2018-06-17T08:59:57.390Z,5.78
2018-06-17T09:02:25.524Z,7.22
2018-06-17T09:04:53.396Z,6.55
2018-06-17T09:07:21.225Z,5.40
2018-06-17T09:09:49.979Z,6.22
2018-06-17T09:12:18.009Z,11.80
2018-06-17T09:14:46.016Z,4.62
2018-06-17T09:17:14.120Z,5.83
2018-06-17T09:19:42.260Z,7.70
2018-06-17T09:22:10.394Z,6.10
2018-06-17T09:24:38.386Z,4.45
2018-06-17T09:27:06.529Z,4.62
2018-06-17T09:29:36.268Z,5.35
2018-06-17T09:32:04.178Z,5.53
2018-06-17T09:34:32.530Z,5.47
2018-06-17T09:37:00.472Z,6.58
2018-06-17T09:39:28.496Z,4.83
2018-06-17T09:41:56.413Z,5.05
2018-06-17T09:44:24.621Z,4.87
2018-06-17T09:46:52.656Z,6.70
2018-06-17T09:49:20.606Z,5.40
2018-06-17T09:51:48.608Z,7.40
2018-06-17T09:54:16.342Z,6.60
2018-06-17T09:56:44.778Z,6.80
2018-06-17T09:59:12.721Z,7.25
2018-06-17T10:01:40.722Z,6.15
2018-06-17T10:04:08.716Z,7.42
2018-06-17T10:06:36.360Z,6.00
2018-06-17T10:09:06.510Z,5.15
2018-06-17T10:11:34.604Z,4.92
2018-06-17T10:14:02.584Z,8.03
2018-06-17T10:16:30.556Z,5.10
2018-06-17T10:18:58.557Z,5.92
2018-06-17T10:21:26.609Z,6.40
2018-06-17T10:23:54.570Z,7.30
2018-06-17T10:26:22.483Z,7.05
2018-06-17T10:28:50.500Z,5.42
2018-06-17T10:31:18.474Z,6.33
2018-06-17T10:33:46.432Z,5.00
2018-06-17T10:36:14.433Z,6.30
2018-06-17T10:38:42.415Z,7.55
2018-06-17T10:41:10.350Z,8.05
2018-06-17T10:43:39.076Z,6.22
2018-06-17T10:46:06.985Z,5.60
2018-06-17T10:48:35.473Z,5.10
2018-06-17T10:51:03.484Z,8.35
2018-06-17T10:53:31.597Z,5.28
2018-06-17T10:56:00.514Z,5.47
2018-06-17T10:58:28.401Z,5.65
2018-06-17T11:00:56.116Z,6.53
2018-06-17T11:03:23.964Z,5.90
2018-06-17T11:05:51.790Z,6.50
2018-06-17T11:08:19.949Z,5.87
2018-06-17T11:10:47.965Z,5.00
2018-06-17T11:13:16.013Z,5.03
2018-06-17T11:15:43.936Z,7.80
2018-06-17T11:18:11.896Z,6.60
2018-06-17T11:20:39.917Z,5.70
2018-06-17T11:23:07.888Z,6.65
2018-06-17T11:25:35.896Z,5.17
2018-06-17T11:28:04.236Z,8.20
2018-06-17T11:30:32.250Z,5.78
2018-06-17T11:33:00.278Z,5.03
2018-06-17T11:35:29.042Z,6.03
2018-06-17T11:37:57.412Z,6.75
2018-06-17T11:40:25.572Z,11.60
2018-06-17T11:42:53.533Z,6.20
2018-06-17T11:45:21.550Z,5.22
2018-06-17T11:47:49.732Z,5.30
2018-06-17T11:50:17.641Z,5.10
2018-06-17T11:52:45.598Z,6.03
2018-06-17T11:55:15.723Z,5.20
2018-06-17T11:57:43.718Z,4.47
2018-06-17T12:00:12.074Z,4.67
2018-06-17T12:02:40.274Z,5.45
2018-06-17T12:05:08.231Z,4.92
2018-06-17T12:07:36.109Z,7.50
2018-06-17T12:10:04.039Z,6.87
2018-06-17T12:12:31.943Z,6.42
2018-06-17T12:14:59.868Z,5.25
2018-06-17T12:17:28.570Z,5.37
2018-06-17T12:19:57.300Z,4.65
2018-06-17T12:22:25.388Z,5.05
2018-06-17T12:24:54.265Z,5.33
2018-06-17T12:27:22.729Z,5.22
2018-06-17T12:29:50.729Z,7.87
2018-06-17T12:32:18.988Z,8.90
2018-06-17T12:34:47.285Z,6.08
2018-06-17T12:37:15.233Z,4.80
2018-06-17T12:39:43.577Z,5.00
2018-06-17T12:42:11.777Z,5.83
2018-06-17T12:44:39.775Z,4.78
2018-06-17T12:47:07.764Z,5.35
2018-06-17T12:49:35.673Z,5.65
2018-06-17T12:52:04.270Z,5.70
2018-06-17T12:54:32.241Z,5.40
2018-06-17T12:57:00.220Z,6.65
2018-06-17T12:59:28.716Z,4.83
2018-06-17T13:01:56.940Z,6.62
2018-06-17T13:04:25.461Z,5.10
2018-06-17T13:06:54.092Z,6.25
2018-06-17T13:09:22.014Z,5.17
2018-06-17T13:11:50.013Z,9.23
2018-06-17T13:14:18.035Z,5.47
2018-06-17T13:16:46.584Z,8.48
2018-06-17T13:19:14.726Z,7.80
2018-06-17T13:21:42.844Z,6.05
2018-06-17T13:24:10.851Z,5.47
2018-06-17T13:26:38.700Z,6.33
2018-06-17T13:29:06.860Z,5.30
2018-06-17T13:31:35.352Z,6.62
2018-06-17T13:34:03.411Z,5.53
2018-06-17T13:36:31.384Z,5.28
2018-06-17T13:38:59.399Z,4.50
2018-06-17T13:41:27.397Z,7.05
2018-06-17T13:43:55.514Z,4.92
2018-06-17T13:46:23.745Z,5.20
2018-06-17T13:48:51.868Z,5.60
2018-06-17T13:51:20.059Z,9.08
2018-06-17T13:53:48.260Z,6.03
2018-06-17T13:56:16.214Z,5.08
2018-06-17T13:58:44.236Z,5.20
2018-06-17T14:01:13.218Z,5.50
2018-06-17T14:03:42.053Z,5.10
2018-06-17T14:06:10.120Z,5.85
2018-06-17T14:08:39.754Z,5.35
2018-06-17T14:11:08.000Z,5.35
2018-06-17T14:13:36.244Z,5.12
2018-06-17T14:16:04.190Z,5.35
2018-06-17T14:18:32.061Z,5.62
2018-06-17T14:21:01.739Z,5.65
2018-06-17T14:23:30.036Z,5.45
2018-06-17T14:25:58.065Z,6.15
2018-06-17T14:28:26.001Z,5.50
2018-06-17T14:30:54.076Z,5.20
2018-06-17T14:33:21.865Z,6.60
2018-06-17T14:35:50.227Z,7.53
2018-06-17T14:38:18.995Z,7.08
2018-06-17T14:40:52.007Z,5.47
2018-06-17T14:43:25.312Z,5.40
2018-06-17T14:46:01.308Z,6.72
2018-06-17T14:48:34.412Z,5.37
2018-06-17T14:51:09.808Z,4.92
2018-06-17T14:53:38.033Z,4.95
2018-06-17T14:56:06.012Z,5.60
2018-06-17T14:58:33.965Z,5.33
2018-06-17T15:01:01.881Z,5.12
2018-06-17T15:03:30.013Z,5.12
2018-06-17T15:05:57.729Z,5.40
2018-06-17T15:08:25.689Z,5.53
2018-06-17T15:10:53.509Z,5.35
2018-06-17T15:13:21.376Z,5.08
2018-06-17T15:15:49.800Z,5.50
2018-06-17T15:18:17.834Z,6.80
2018-06-17T15:20:45.697Z,5.42
2018-06-17T15:23:13.620Z,5.95
2018-06-17T15:25:41.446Z,5.60
2018-06-17T15:28:09.965Z,6.33
2018-06-17T15:30:37.908Z,4.92
2018-06-17T15:33:11.715Z,5.20
2018-06-17T15:35:45.368Z,5.35
2018-06-17T15:38:18.488Z,6.03
2018-06-17T15:40:51.649Z,5.00
2018-06-17T15:43:19.396Z,6.22
2018-06-17T15:45:48.002Z,5.95
2018-06-17T15:48:15.913Z,6.35
2018-06-17T15:50:44.610Z,5.60
2018-06-17T15:53:12.416Z,5.85
2018-06-17T15:55:41.499Z,5.12
2018-06-17T15:58:11.144Z,5.92
2018-06-17T16:00:38.964Z,5.35
2018-06-17T16:03:06.816Z,6.37
2018-06-17T16:05:35.662Z,6.55
2018-06-17T16:08:03.576Z,5.30
2018-06-17T16:10:31.332Z,5.15
2018-06-17T16:14:06.179Z,5.15
2018-06-17T16:16:39.282Z,5.37
2018-06-17T16:19:12.469Z,5.72
2018-06-17T16:21:40.396Z,5.35
2018-06-17T16:24:08.298Z,5.87
2018-06-17T16:26:36.166Z,5.17
2018-06-17T16:29:04.680Z,5.62
2018-06-17T16:31:32.516Z,8.00
2018-06-17T16:34:00.336Z,5.17
2018-06-17T16:36:28.166Z,8.75
2018-06-17T16:38:55.893Z,5.55
2018-06-17T16:41:23.792Z,6.20
2018-06-17T16:43:51.546Z,5.33
2018-06-17T16:46:19.388Z,5.45
2018-06-17T16:48:47.250Z,6.30
2018-06-17T16:51:20.270Z,7.72
2018-06-17T16:53:53.471Z,25.72
2018-06-17T16:56:26.366Z,6.67
2018-06-17T16:58:59.322Z,9.33
2018-06-17T17:01:27.232Z,6.40
2018-06-17T17:03:55.782Z,5.30
2018-06-17T17:06:23.667Z,5.87
2018-06-17T17:08:51.524Z,5.17
2018-06-17T17:11:20.053Z,5.05
2018-06-17T17:13:48.029Z,7.50
2018-06-17T17:16:15.953Z,6.42
2018-06-17T17:18:44.598Z,5.28
2018-06-17T17:21:12.652Z,5.22
2018-06-17T17:23:40.628Z,5.67
2018-06-17T17:26:09.029Z,5.60
2018-06-17T17:28:38.097Z,4.67
2018-06-17T17:31:06.063Z,5.78
2018-06-17T17:33:39.277Z,5.58
2018-06-17T17:36:12.527Z,4.83
2018-06-17T17:38:45.798Z,5.95
2018-06-17T17:41:14.058Z,6.85
2018-06-17T17:43:41.924Z,5.20
2018-06-17T17:46:15.188Z,5.87
2018-06-17T17:48:43.784Z,5.65
2018-06-17T17:51:12.288Z,8.38
2018-06-17T17:53:40.737Z,7.45
2018-06-17T17:56:08.774Z,5.45
2018-06-17T17:58:36.641Z,5.80
2018-06-17T18:01:05.471Z,6.53
2018-06-17T18:03:33.364Z,5.37
2018-06-17T18:06:01.356Z,5.35
2018-06-17T18:08:29.555Z,5.47
2018-06-17T18:10:57.432Z,5.75
2018-06-17T18:13:25.414Z,6.03
2018-06-17T18:15:53.364Z,5.53
2018-06-17T18:18:21.228Z,5.92
2018-06-17T18:20:49.312Z,5.62
2018-06-17T18:23:17.450Z,7.55
2018-06-17T18:25:50.360Z,5.55
2018-06-17T18:28:23.388Z,5.95
2018-06-17T18:30:56.644Z,7.05
2018-06-17T18:33:30.724Z,5.80
2018-06-17T18:36:03.928Z,5.35
2018-06-17T18:38:31.825Z,6.85
2018-06-17T18:40:59.940Z,7.30
2018-06-17T18:43:28.014Z,6.47
2018-06-17T18:45:56.312Z,11.20
2018-06-17T18:48:24.253Z,5.90
2018-06-17T18:50:52.977Z,7.17
2018-06-17T18:53:21.588Z,6.65
2018-06-17T18:55:49.682Z,5.90
2018-06-17T18:58:18.087Z,13.62
2018-06-17T19:00:46.024Z,7.67
2018-06-17T19:03:14.002Z,7.30
2018-06-17T19:05:42.263Z,11.18
2018-06-17T19:08:15.075Z,7.97
2018-06-17T19:10:48.563Z,9.78
2018-06-17T19:13:21.885Z,13.03
2018-06-17T19:15:55.554Z,7.67
2018-06-17T19:18:23.639Z,12.45
2018-06-17T19:20:51.748Z,7.60
2018-06-17T19:23:19.791Z,8.38
2018-06-17T19:26:00.441Z,7.50
2018-06-17T19:58:02.125Z,7.12
2018-06-17T20:00:33.887Z,14.13
2018-06-17T20:03:02.672Z,11.10
2018-06-17T20:05:31.308Z,8.90
2018-06-17T20:08:00.369Z,11.37
2018-06-17T20:10:28.242Z,13.07
2018-06-17T20:12:57.315Z,15.97
2018-06-17T20:15:26.662Z,10.20
2018-06-17T20:17:54.892Z,14.37
2018-06-17T20:20:22.988Z,10.60
2018-06-17T20:22:51.608Z,12.70
2018-06-17T20:25:19.498Z,15.03
2018-06-17T20:27:47.376Z,13.40
2018-06-17T20:30:16.085Z,9.50
2018-06-17T20:32:49.058Z,11.03
2018-06-17T20:35:22.241Z,14.23
2018-06-17T20:37:56.682Z,16.67
2018-06-17T20:40:30.080Z,10.90
2018-06-17T20:43:03.337Z,11.83
2018-06-17T20:45:31.388Z,8.53
2018-06-17T20:47:59.509Z,11.43
2018-06-17T20:50:42.424Z,12.03
2018-06-17T20:53:11.550Z,15.23
2018-06-17T20:55:39.884Z,13.90
2018-06-17T20:58:08.192Z,16.10
2018-06-17T21:00:37.528Z,11.97
2018-06-17T21:03:05.533Z,8.23
2018-06-17T21:05:34.509Z,12.03
2018-06-17T21:08:02.755Z,13.03
2018-06-17T21:10:31.719Z,13.73
2018-06-17T21:13:00.222Z,13.30
2018-06-17T21:15:28.719Z,10.87
2018-06-17T21:17:57.392Z,14.23
2018-06-17T21:20:30.501Z,13.07
2018-06-17T21:23:04.156Z,9.90
2018-06-17T21:25:37.520Z,13.97
2018-06-17T21:28:05.924Z,14.33
2018-06-17T21:30:33.967Z,16.27
2018-06-17T21:33:01.971Z,9.53
2018-06-17T21:35:29.938Z,10.37
2018-06-17T21:37:58.687Z,10.73
2018-06-17T21:40:26.769Z,10.93
2018-06-17T21:42:58.006Z,10.57
2018-06-17T21:45:25.917Z,14.40
2018-06-17T21:47:54.030Z,12.90
2018-06-17T21:50:23.110Z,12.93
2018-06-17T21:52:51.209Z,14.70
2018-06-17T21:55:19.337Z,11.07
2018-06-17T21:57:48.813Z,13.50
2018-06-17T22:00:16.860Z,10.37
2018-06-17T22:02:45.520Z,12.33
2018-06-17T22:05:14.024Z,10.63
2018-06-17T22:07:48.218Z,10.43
2018-06-17T22:10:22.193Z,9.93
2018-06-17T22:12:55.624Z,12.93
2018-06-17T22:15:28.916Z,10.50
2018-06-17T22:17:57.609Z,10.27
2018-06-17T22:20:26.712Z,9.10
2018-06-17T22:22:54.755Z,9.67
2018-06-17T22:25:23.289Z,9.87
2018-06-17T22:27:51.275Z,9.00
2018-06-17T22:30:19.405Z,9.07
2018-06-17T22:32:48.168Z,8.57
2018-06-17T22:35:16.219Z,9.73
2018-06-17T22:37:44.063Z,8.17
2018-06-17T22:40:14.675Z,9.67
2018-06-17T22:42:49.736Z,7.30
2018-06-17T22:45:19.686Z,8.47
2018-06-17T22:47:53.275Z,12.80
2018-06-17T22:50:25.227Z,8.93
2018-06-17T22:52:59.664Z,8.13
2018-06-17T22:55:28.389Z,7.13
2018-06-17T22:58:04.684Z,9.53
2018-06-17T23:01:39.033Z,6.40
2018-06-17T23:04:12.457Z,6.33
2018-06-17T23:06:45.913Z,6.50
2018-06-17T23:09:19.258Z,7.10
2018-06-17T23:11:47.285Z,7.37
2018-06-17T23:14:16.466Z,22.63
2018-06-17T23:16:45.192Z,6.93
2018-06-17T23:19:13.584Z,7.07
2018-06-17T23:21:41.865Z,6.50
2018-06-17T23:24:10.050Z,6.70
2018-06-17T23:26:38.090Z,6.83
2018-06-17T23:29:06.060Z,7.60
2018-06-17T23:31:34.425Z,7.53
2018-06-17T23:34:02.467Z,8.63
2018-06-17T23:36:31.379Z,7.60
2018-06-17T23:39:00.147Z,8.53
2018-06-17T23:41:28.119Z,7.83
2018-06-17T23:43:56.089Z,7.53
2018-06-17T23:46:29.276Z,8.77
2018-06-17T23:49:03.295Z,8.10
2018-06-17T23:51:37.150Z,11.00
2018-06-17T23:54:10.233Z,8.27
2018-06-17T23:56:38.340Z,8.57
2018-06-17T23:59:06.426Z,8.43
